createdAt,value
2022-10-07T00:00:48.912Z,6.10
2022-10-07T00:06:04.194Z,8.45
2022-10-07T00:11:19.894Z,6.55
2022-10-07T00:16:34.989Z,7.93
2022-10-07T00:21:49.950Z,13.93
2022-10-07T00:27:05.185Z,6.40
2022-10-07T00:32:20.917Z,5.38
2022-10-07T00:37:35.943Z,6.13
2022-10-07T00:42:51.231Z,4.38
2022-10-07T00:48:07.238Z,5.18
2022-10-07T00:53:22.921Z,3.85
2022-10-07T00:58:38.281Z,3.75
2022-10-07T01:03:54.035Z,7.93
2022-10-07T01:09:08.893Z,8.23
2022-10-07T01:14:23.914Z,5.63
2022-10-07T01:19:39.236Z,6.72
2022-10-07T01:24:54.910Z,4.07
2022-10-07T01:30:09.914Z,14.35
2022-10-07T01:35:25.944Z,6.07
2022-10-07T01:40:40.903Z,6.05
2022-10-07T01:45:56.014Z,6.75
2022-10-07T01:51:10.913Z,5.93
2022-10-07T01:56:26.276Z,13.00
2022-10-07T02:01:42.018Z,7.28
2022-10-07T02:06:57.903Z,10.02
2022-10-07T02:12:14.187Z,5.60
2022-10-07T02:17:30.028Z,8.13
2022-10-07T02:22:45.227Z,5.07
2022-10-07T02:28:01.050Z,8.45
2022-10-07T02:33:17.917Z,9.23
2022-10-07T02:38:33.251Z,4.93
2022-10-07T02:43:52.263Z,6.10
2022-10-07T02:49:07.689Z,7.18
2022-10-07T02:54:22.976Z,5.90
2022-10-07T02:59:37.908Z,6.80
2022-10-07T03:04:53.231Z,8.07
2022-10-07T03:10:09.980Z,10.35
2022-10-07T03:15:24.684Z,10.88
2022-10-07T03:20:40.908Z,19.83
2022-10-07T03:25:55.692Z,24.38
2022-10-07T03:31:10.740Z,7.13
2022-10-07T03:36:29.935Z,13.20
2022-10-07T03:41:45.915Z,9.43
2022-10-07T03:47:01.285Z,11.63
2022-10-07T03:52:18.285Z,9.88
2022-10-07T03:57:34.942Z,10.73
2022-10-07T04:02:50.044Z,11.60
2022-10-07T04:08:05.949Z,11.13
2022-10-07T04:13:21.255Z,10.38
2022-10-07T04:18:37.954Z,12.52
2022-10-07T04:23:52.946Z,25.08
2022-10-07T04:29:08.220Z,11.27
2022-10-07T04:34:24.292Z,7.57
2022-10-07T04:39:59.661Z,9.68
2022-10-07T04:45:15.942Z,122.55
2022-10-07T04:50:30.911Z,357.55
2022-10-07T04:55:47.230Z,226.20
2022-10-07T05:01:05.036Z,160.85
2022-10-07T05:06:23.967Z,131.68
2022-10-07T05:11:39.010Z,109.22
2022-10-07T05:16:59.234Z,106.60
2022-10-07T05:22:16.927Z,74.45
2022-10-07T05:27:32.906Z,101.07
2022-10-07T05:32:47.965Z,113.53
2022-10-07T05:38:04.945Z,98.10
2022-10-07T05:43:19.948Z,71.78
2022-10-07T05:48:39.363Z,68.07
2022-10-07T05:53:55.954Z,52.17
2022-10-07T05:59:18.957Z,52.75
2022-10-07T06:04:34.958Z,61.80
2022-10-07T06:09:49.956Z,56.03
2022-10-07T06:15:04.708Z,51.03
2022-10-07T06:20:23.006Z,39.10
2022-10-07T06:25:39.239Z,32.03
2022-10-07T06:30:55.015Z,33.50
2022-10-07T06:36:10.291Z,29.15
2022-10-07T06:41:27.971Z,32.10
2022-10-07T06:47:07.787Z,28.27
2022-10-07T06:52:28.378Z,41.17
2022-10-07T06:57:46.271Z,18.80
2022-10-07T07:03:02.936Z,23.02
2022-10-07T07:08:18.692Z,22.25
2022-10-07T07:13:34.939Z,20.02
2022-10-07T07:18:49.951Z,17.98
2022-10-07T07:24:05.953Z,17.15
2022-10-07T07:29:20.978Z,18.85
2022-10-07T07:34:38.786Z,13.70
2022-10-07T07:39:59.951Z,14.90
2022-10-07T07:45:16.187Z,10.13
2022-10-07T07:50:33.247Z,13.23
2022-10-07T07:55:49.329Z,13.48
2022-10-07T08:01:06.230Z,15.02
2022-10-07T08:06:22.948Z,14.45
2022-10-07T08:11:38.002Z,12.35
2022-10-07T08:16:55.936Z,13.35
2022-10-07T08:22:11.980Z,11.07
2022-10-07T08:27:31.057Z,19.25
2022-10-07T08:32:47.059Z,9.50
2022-10-07T08:38:01.965Z,8.98
2022-10-07T08:43:16.991Z,12.15
2022-10-07T08:48:31.970Z,8.85
2022-10-07T08:54:23.978Z,7.97
2022-10-07T08:59:38.999Z,11.23
2022-10-07T09:04:53.982Z,10.82
2022-10-07T09:10:08.984Z,11.57
2022-10-07T09:15:23.969Z,9.57
2022-10-07T09:20:38.978Z,7.78
2022-10-07T09:25:53.979Z,9.63
2022-10-07T09:31:09.035Z,13.68
2022-10-07T09:36:24.334Z,8.60
2022-10-07T09:41:40.006Z,7.90
2022-10-07T09:46:55.355Z,11.38
2022-10-07T09:52:11.296Z,9.68
2022-10-07T09:57:27.274Z,8.32
2022-10-07T10:02:43.102Z,9.75
2022-10-07T10:07:57.749Z,8.40
2022-10-07T10:13:13.268Z,8.02
2022-10-07T10:18:29.306Z,11.18
2022-10-07T10:23:44.990Z,7.80
2022-10-07T10:28:59.943Z,14.27
2022-10-07T10:34:15.311Z,11.57
2022-10-07T10:39:30.963Z,9.50
2022-10-07T10:44:45.980Z,6.63
2022-10-07T10:50:01.065Z,8.52
2022-10-07T10:55:15.873Z,7.63
2022-10-07T11:00:30.781Z,8.82
2022-10-07T11:05:45.992Z,9.68
2022-10-07T11:11:01.016Z,11.50
2022-10-07T11:16:16.032Z,10.63
2022-10-07T11:21:31.022Z,8.68
2022-10-07T11:26:46.240Z,7.72
2022-10-07T11:32:01.946Z,8.07
2022-10-07T11:37:16.960Z,6.43
2022-10-07T11:42:32.023Z,6.47
2022-10-07T11:47:47.027Z,7.20
2022-10-07T11:53:02.083Z,11.65
2022-10-07T11:58:16.999Z,8.75
2022-10-07T12:03:32.373Z,6.25
2022-10-07T12:08:48.429Z,5.75
2022-10-07T12:14:03.996Z,6.18
2022-10-07T12:19:23.253Z,7.47
2022-10-07T12:24:38.734Z,8.98
2022-10-07T12:29:54.017Z,6.15
2022-10-07T12:35:08.990Z,4.70
2022-10-07T12:40:24.007Z,7.38
2022-10-07T12:45:39.028Z,8.70
2022-10-07T12:50:53.724Z,4.97
2022-10-07T12:56:08.963Z,12.32
2022-10-07T13:01:24.101Z,13.98
2022-10-07T13:06:38.975Z,16.95
2022-10-07T13:11:54.019Z,16.63
2022-10-07T13:17:08.964Z,17.85
2022-10-07T13:22:24.068Z,18.40
2022-10-07T13:27:39.044Z,21.05
2022-10-07T13:32:54.008Z,17.25
2022-10-07T13:38:09.289Z,20.30
2022-10-07T13:43:24.990Z,16.35
2022-10-07T13:48:44.510Z,17.17
2022-10-07T13:54:00.977Z,16.98
2022-10-07T13:59:16.022Z,18.48
2022-10-07T14:04:30.996Z,17.30
2022-10-07T14:09:46.072Z,12.55
2022-10-07T14:15:01.036Z,14.02
2022-10-07T14:20:16.196Z,12.23
2022-10-07T14:25:32.049Z,12.63
2022-10-07T14:30:49.949Z,19.73
2022-10-07T14:36:09.248Z,11.32
2022-10-07T14:41:25.010Z,13.45
2022-10-07T14:46:39.819Z,8.32
2022-10-07T14:51:55.044Z,10.32
2022-10-07T14:57:10.009Z,9.68
2022-10-07T15:02:24.897Z,13.35
2022-10-07T15:07:39.981Z,7.95
2022-10-07T15:12:54.999Z,10.25
2022-10-07T15:18:10.059Z,9.20
2022-10-07T15:23:25.014Z,8.90
2022-10-07T15:28:40.021Z,8.23
2022-10-07T15:33:54.728Z,9.20
2022-10-07T15:39:10.302Z,6.32
2022-10-07T15:44:26.018Z,7.32
2022-10-07T15:49:41.331Z,6.93
2022-10-07T15:54:57.020Z,7.65
2022-10-07T16:00:12.026Z,7.40
2022-10-07T16:05:27.078Z,6.63
2022-10-07T16:10:42.033Z,9.50
2022-10-07T16:15:57.105Z,5.90
2022-10-07T16:21:12.036Z,9.75
2022-10-07T16:26:27.015Z,9.25
2022-10-07T16:31:42.030Z,6.15
2022-10-07T16:36:57.027Z,6.18
2022-10-07T16:42:12.366Z,5.25
2022-10-07T16:47:27.984Z,8.32
2022-10-07T16:52:42.769Z,7.10
2022-10-07T16:57:58.007Z,5.47
2022-10-07T17:03:12.964Z,6.53
2022-10-07T17:08:28.077Z,4.47
2022-10-07T17:13:43.077Z,4.72
2022-10-07T17:18:58.303Z,8.75
2022-10-07T17:24:13.775Z,5.82
2022-10-07T17:29:29.311Z,4.97
2022-10-07T17:34:45.638Z,5.68
2022-10-07T17:40:01.072Z,6.43
2022-10-07T17:45:15.983Z,4.75
2022-10-07T17:50:31.039Z,4.07
2022-10-07T17:55:45.997Z,3.25
2022-10-07T18:01:01.141Z,6.20
2022-10-07T18:06:17.029Z,8.52
2022-10-07T18:11:32.399Z,3.65
2022-10-07T18:16:48.010Z,6.53
2022-10-07T18:22:03.296Z,6.75
2022-10-07T18:27:19.005Z,3.42
2022-10-07T18:32:33.762Z,5.60
2022-10-07T18:37:49.252Z,5.95
2022-10-07T18:43:05.021Z,5.45
2022-10-07T18:48:19.982Z,4.00
2022-10-07T18:53:34.808Z,5.53
2022-10-07T18:58:50.001Z,4.45
2022-10-07T19:04:05.061Z,6.20
2022-10-07T19:09:20.067Z,6.82
2022-10-07T19:14:35.006Z,7.50
2022-10-07T19:19:49.998Z,27.58
2022-10-07T19:25:04.771Z,9.25
2022-10-07T19:30:20.350Z,8.82
2022-10-07T19:35:36.329Z,5.03
2022-10-07T19:40:52.005Z,4.90
2022-10-07T19:46:07.064Z,6.57
2022-10-07T19:51:22.046Z,7.78
2022-10-07T19:56:36.791Z,7.35
2022-10-07T20:01:52.036Z,10.90
2022-10-07T20:07:07.033Z,9.27
2022-10-07T20:12:22.007Z,6.55
2022-10-07T20:17:37.233Z,5.28
2022-10-07T20:22:53.316Z,5.10
2022-10-07T20:28:09.112Z,7.88
2022-10-07T20:33:24.321Z,4.80
2022-10-07T20:38:40.020Z,4.30
2022-10-07T20:43:55.335Z,5.80
2022-10-07T20:49:11.001Z,8.00
2022-10-07T20:54:26.338Z,6.18
2022-10-07T20:59:42.000Z,6.88
2022-10-07T21:04:57.032Z,8.25
2022-10-07T21:10:12.079Z,5.78
2022-10-07T21:15:27.043Z,3.95
2022-10-07T21:20:41.784Z,4.57
2022-10-07T21:25:57.097Z,14.68
2022-10-07T21:31:12.358Z,10.13
2022-10-07T21:36:28.330Z,6.28
2022-10-07T21:41:44.060Z,15.63
2022-10-07T21:46:59.033Z,8.70
2022-10-07T21:52:14.375Z,9.18
2022-10-07T21:57:29.983Z,5.53
2022-10-07T22:02:45.481Z,5.53
2022-10-07T22:08:01.316Z,5.95
2022-10-07T22:13:17.029Z,4.43
2022-10-07T22:18:32.009Z,8.23
2022-10-07T22:23:47.078Z,5.82
2022-10-07T22:29:02.338Z,11.10
2022-10-07T22:34:17.771Z,4.18
2022-10-07T22:39:33.360Z,9.85
2022-10-07T22:44:49.012Z,5.75
2022-10-07T22:50:04.009Z,5.05
2022-10-07T22:55:18.999Z,6.75
2022-10-07T23:00:34.008Z,14.60
2022-10-07T23:05:49.029Z,7.15
2022-10-07T23:11:04.025Z,5.90
2022-10-07T23:16:19.387Z,5.03
2022-10-07T23:21:35.022Z,7.07
2022-10-07T23:26:50.055Z,7.25
2022-10-07T23:32:05.340Z,5.07
2022-10-07T23:37:21.086Z,4.45
2022-10-07T23:42:35.989Z,11.98
2022-10-07T23:47:51.012Z,8.63
2022-10-07T23:53:06.010Z,5.10
2022-10-07T23:58:21.381Z,7.03
